Time;durP1;ratioP1;P1;durP2;ratioP2;P2;SDS_P1;SDS_P2;PMS_P1;PMS_P2;Temp;Humidity;BMP_temperature;BMP_pressure;BME280_temperature;BME280_humidity;BME280_pressure;Samples;Min_cycle;Max_cycle;Signal;HPM_P1;HPM_P2
2024/04/24 00:02:11;;;;;;;11.57;6.93;;;7.10;99.90;;;;;;5462391;26;20342;-76
2024/04/24 00:04:37;;;;;;;10.93;6.70;;;7.10;99.90;;;;;;5461813;26;20021;-76
2024/04/24 00:07:02;;;;;;;10.85;7.00;;;7.10;99.90;;;;;;5462442;26;20014;-76
2024/04/24 00:09:28;;;;;;;11.73;7.68;;;7.10;99.90;;;;;;5463472;26;20010;-75
2024/04/24 00:11:53;;;;;;;12.68;8.50;;;7.10;99.90;;;;;;5463809;26;20459;-76
2024/04/24 00:14:21;;;;;;;9.85;7.30;;;7.10;99.90;;;;;;5463888;26;20002;-76
2024/04/24 00:16:47;;;;;;;10.45;6.55;;;7.10;99.90;;;;;;5462675;26;20013;-76
2024/04/24 00:19:13;;;;;;;11.75;7.82;;;7.10;99.90;;;;;;5459267;26;20010;-76
2024/04/24 00:21:38;;;;;;;9.65;7.35;;;7.10;99.90;;;;;;5464601;26;19998;-76
2024/04/24 00:24:04;;;;;;;12.43;8.32;;;7.10;99.90;;;;;;5465558;26;20020;-76
2024/04/24 00:26:29;;;;;;;11.25;7.68;;;7.10;99.90;;;;;;5466346;26;20532;-76
2024/04/24 00:28:55;;;;;;;10.43;7.47;;;7.00;99.90;;;;;;5466028;26;20002;-76
2024/04/24 00:31:21;;;;;;;12.07;8.57;;;7.10;99.90;;;;;;5462162;26;20562;-76
2024/04/24 00:33:46;;;;;;;13.57;9.50;;;7.10;99.90;;;;;;5464075;26;20079;-76
2024/04/24 00:36:12;;;;;;;13.73;9.07;;;7.00;99.90;;;;;;5467268;26;19998;-77
2024/04/24 00:38:37;;;;;;;12.55;8.77;;;7.00;99.90;;;;;;5465454;26;20773;-76
2024/04/24 00:41:03;;;;;;;12.88;8.60;;;6.90;99.90;;;;;;5463925;26;19998;-77
2024/04/24 00:43:29;;;;;;;10.90;7.68;;;6.80;99.90;;;;;;5465689;26;20020;-76
2024/04/24 00:45:58;;;;;;;10.52;7.60;;;6.70;99.90;;;;;;5465451;26;19998;-76
2024/04/24 00:48:25;;;;;;;6.75;4.90;;;6.60;99.90;;;;;;5467074;26;20111;-76
2024/04/24 00:50:51;;;;;;;9.18;3.30;;;6.70;99.90;;;;;;5466291;26;20002;-77
2024/04/24 00:53:17;;;;;;;4.22;2.58;;;6.70;99.90;;;;;;5468214;26;20006;-76
2024/04/24 00:55:43;;;;;;;4.20;2.70;;;6.80;99.90;;;;;;5463720;26;19991;-76
2024/04/24 00:58:10;;;;;;;4.78;2.90;;;6.80;99.90;;;;;;5465009;26;20021;-76
2024/04/24 01:00:36;;;;;;;5.65;3.53;;;6.80;99.90;;;;;;5463585;26;20010;-77
2024/04/24 01:03:04;;;;;;;4.53;2.55;;;6.80;99.90;;;;;;5464473;26;20598;-76
2024/04/24 01:05:30;;;;;;;4.82;2.78;;;6.90;99.90;;;;;;5463141;26;20920;-77
2024/04/24 01:07:56;;;;;;;7.72;3.38;;;7.00;99.90;;;;;;5463615;26;19990;-77
2024/04/24 01:10:21;;;;;;;7.22;4.10;;;6.90;99.90;;;;;;5463693;26;20025;-77
2024/04/24 01:12:48;;;;;;;6.78;5.05;;;6.90;99.90;;;;;;5466291;26;20343;-76
2024/04/24 01:15:15;;;;;;;8.52;5.90;;;6.70;99.90;;;;;;5464223;26;20006;-76
2024/04/24 01:17:45;;;;;;;8.82;5.90;;;6.70;99.90;;;;;;5465933;26;20420;-76
2024/04/24 01:20:31;;;;;;;7.97;5.25;;;6.60;99.90;;;;;;5466539;26;20010;-76
2024/04/24 01:23:22;;;;;;;6.35;4.45;;;6.40;99.90;;;;;;5465896;26;21032;-77
2024/04/24 01:26:06;;;;;;;9.05;5.82;;;6.40;99.90;;;;;;5463308;26;20009;-76
2024/04/24 01:28:32;;;;;;;7.18;5.15;;;6.40;99.90;;;;;;5462054;26;20025;-76
2024/04/24 01:30:59;;;;;;;6.47;4.38;;;6.30;99.90;;;;;;5464519;26;20022;-76
2024/04/24 01:33:25;;;;;;;8.95;4.82;;;6.40;99.90;;;;;;5462021;26;19994;-76
2024/04/24 01:35:51;;;;;;;6.75;4.53;;;6.40;99.90;;;;;;5466085;26;20100;-76
2024/04/24 01:38:17;;;;;;;7.28;3.42;;;6.50;99.90;;;;;;5465059;26;20100;-76
2024/04/24 01:40:42;;;;;;;6.57;4.20;;;6.60;99.90;;;;;;5465410;26;20315;-76
2024/04/24 01:43:08;;;;;;;7.43;4.32;;;6.70;99.90;;;;;;5463326;26;20010;-76
2024/04/24 01:45:34;;;;;;;8.40;4.72;;;6.70;99.90;;;;;;5463401;26;20018;-76
2024/04/24 01:47:59;;;;;;;7.07;4.20;;;6.70;99.90;;;;;;5460965;26;20002;-76
2024/04/24 01:50:25;;;;;;;6.40;4.05;;;6.70;99.90;;;;;;5464320;26;20855;-76
2024/04/24 01:52:50;;;;;;;9.38;6.78;;;6.70;99.90;;;;;;5464529;26;20006;-76
2024/04/24 01:55:16;;;;;;;13.43;7.30;;;6.60;99.90;;;;;;5463062;26;20701;-76
2024/04/24 01:57:41;;;;;;;9.23;6.80;;;6.60;99.90;;;;;;5464295;26;20042;-76
2024/04/24 02:00:08;;;;;;;7.68;5.47;;;6.60;99.90;;;;;;5463969;26;20003;-76
2024/04/24 02:02:33;;;;;;;8.02;5.10;;;6.60;99.90;;;;;;5463172;26;20002;-76
2024/04/24 02:04:59;;;;;;;7.97;5.90;;;6.60;99.90;;;;;;5462560;26;20024;-76
2024/04/24 02:07:24;;;;;;;11.13;5.88;;;6.60;99.90;;;;;;5464635;26;20087;-76
2024/04/24 02:09:50;;;;;;;7.13;4.28;;;6.50;99.90;;;;;;5463114;26;20082;-76
2024/04/24 02:12:15;;;;;;;9.00;4.97;;;6.50;99.90;;;;;;5462752;26;20006;-76
2024/04/24 02:14:41;;;;;;;9.82;5.05;;;6.40;99.90;;;;;;5462297;26;20009;-76
2024/04/24 02:17:07;;;;;;;6.60;3.92;;;6.40;99.90;;;;;;5461401;26;20017;-77
2024/04/24 02:19:32;;;;;;;4.90;2.83;;;6.30;99.90;;;;;;5464274;26;20047;-77
2024/04/24 02:21:58;;;;;;;5.50;3.55;;;6.30;99.90;;;;;;5464343;26;20006;-76
2024/04/24 02:27:08;;;;;;;5.30;3.15;;;6.40;99.90;;;;;;5463693;26;20441;-76
2024/04/24 02:29:33;;;;;;;5.15;3.17;;;6.50;99.90;;;;;;5462229;26;20006;-77
2024/04/24 02:31:59;;;;;;;6.97;4.60;;;6.60;99.90;;;;;;5463485;26;20021;-76
2024/04/24 02:34:25;;;;;;;8.35;5.38;;;6.60;99.90;;;;;;5462151;26;20102;-76
2024/04/24 02:36:50;;;;;;;8.85;5.10;;;6.70;99.90;;;;;;5461410;26;20074;-76
2024/04/24 02:39:16;;;;;;;6.55;4.03;;;6.70;99.90;;;;;;5462635;26;20434;-76
2024/04/24 02:41:41;;;;;;;6.45;3.20;;;6.60;99.90;;;;;;5463204;26;20587;-76
2024/04/24 02:44:07;;;;;;;4.63;2.80;;;6.70;99.90;;;;;;5464547;26;20010;-76
2024/04/24 02:46:32;;;;;;;5.32;2.72;;;6.60;99.90;;;;;;5464214;26;20002;-76
2024/04/24 02:48:58;;;;;;;4.95;2.83;;;6.60;99.90;;;;;;5461716;26;20033;-76
2024/04/24 02:51:24;;;;;;;5.32;3.10;;;6.70;99.90;;;;;;5463404;26;20005;-76
2024/04/24 02:53:49;;;;;;;5.82;3.97;;;6.70;99.90;;;;;;5463195;26;20005;-77
2024/04/24 02:56:15;;;;;;;5.60;3.13;;;6.70;99.90;;;;;;5463486;26;20084;-77
2024/04/24 02:58:40;;;;;;;6.28;3.83;;;6.70;99.90;;;;;;5463130;26;20093;-76
2024/04/24 03:01:16;;;;;;;10.25;5.60;;;6.70;99.90;;;;;;5460737;26;20257;-76
2024/04/24 03:03:41;;;;;;;11.35;7.13;;;6.60;99.90;;;;;;5456506;26;20037;-76
2024/04/24 03:06:07;;;;;;;9.45;5.50;;;6.60;99.90;;;;;;5458862;26;20024;-76
2024/04/24 03:08:33;;;;;;;8.88;4.63;;;6.60;99.90;;;;;;5455131;26;20014;-77
2024/04/24 03:10:59;;;;;;;7.25;3.47;;;6.60;99.90;;;;;;5452401;26;19999;-77
2024/04/24 03:13:24;;;;;;;5.05;3.22;;;6.60;99.90;;;;;;5454962;26;20049;-77
2024/04/24 03:15:50;;;;;;;6.43;3.45;;;6.60;99.90;;;;;;5455204;26;20017;-77
2024/04/24 03:18:15;;;;;;;5.35;2.72;;;6.60;99.90;;;;;;5449272;26;20119;-77
2024/04/24 03:20:41;;;;;;;4.68;2.40;;;6.60;99.90;;;;;;5454541;26;20028;-77
2024/04/24 03:23:07;;;;;;;4.85;2.92;;;6.70;99.90;;;;;;5456863;26;20038;-76
2024/04/24 03:25:32;;;;;;;5.25;2.95;;;6.80;99.90;;;;;;5456700;26;19998;-77
2024/04/24 03:27:58;;;;;;;5.35;3.03;;;6.90;99.90;;;;;;5452108;26;20074;-76
2024/04/24 03:30:24;;;;;;;4.65;2.53;;;6.90;99.90;;;;;;5454768;26;20006;-76
2024/04/24 03:32:49;;;;;;;3.92;2.35;;;6.90;99.90;;;;;;5448492;26;19998;-76
2024/04/24 03:35:15;;;;;;;4.32;2.45;;;6.80;99.90;;;;;;5452762;26;20002;-76
2024/04/24 03:37:41;;;;;;;5.40;2.70;;;6.80;99.90;;;;;;5452000;26;20002;-76
2024/04/24 03:40:07;;;;;;;5.07;2.67;;;6.80;99.90;;;;;;5453651;26;20661;-76
2024/04/24 03:42:32;;;;;;;4.43;2.63;;;6.60;99.90;;;;;;5451315;26;20403;-76
2024/04/24 03:44:58;;;;;;;4.28;2.47;;;6.60;99.90;;;;;;5455892;26;20038;-77
2024/04/24 03:47:24;;;;;;;4.65;2.67;;;6.70;99.90;;;;;;5456430;26;20356;-76
2024/04/24 03:49:49;;;;;;;4.15;2.40;;;6.60;99.90;;;;;;5453665;26;20893;-76
2024/04/24 03:52:15;;;;;;;4.07;2.40;;;6.60;99.90;;;;;;5455745;26;20006;-76
2024/04/24 03:54:40;;;;;;;5.32;3.05;;;6.70;99.90;;;;;;5454748;26;20006;-76
2024/04/24 03:57:06;;;;;;;4.43;2.33;;;6.70;99.90;;;;;;5453210;26;20024;-76
2024/04/24 03:59:31;;;;;;;5.95;2.63;;;6.60;99.90;;;;;;5458358;26;20014;-77
2024/04/24 04:01:57;;;;;;;3.47;2.15;;;6.70;99.90;;;;;;5454870;26;20001;-76
2024/04/24 04:04:23;;;;;;;4.55;2.45;;;6.60;99.90;;;;;;5451213;26;20078;-76
2024/04/24 04:06:48;;;;;;;4.28;2.22;;;6.60;99.90;;;;;;5450148;26;20002;-76
2024/04/24 04:09:14;;;;;;;3.67;2.42;;;6.50;99.90;;;;;;5451694;26;20005;-77
2024/04/24 04:11:40;;;;;;;3.60;2.00;;;6.60;99.90;;;;;;5451956;26;20002;-76
2024/04/24 04:14:05;;;;;;;4.13;2.00;;;6.60;99.90;;;;;;5452015;26;20523;-76
2024/04/24 04:16:31;;;;;;;3.72;1.98;;;6.70;99.90;;;;;;5449345;26;20014;-76
2024/04/24 04:18:57;;;;;;;5.28;2.10;;;6.70;99.90;;;;;;5450259;26;20018;-76
2024/04/24 04:21:23;;;;;;;4.18;2.20;;;6.70;99.90;;;;;;5453437;26;20002;-76
2024/04/24 04:23:48;;;;;;;3.92;1.90;;;6.70;99.90;;;;;;5453254;26;20046;-76
2024/04/24 04:26:14;;;;;;;4.00;2.28;;;6.80;99.90;;;;;;5455482;26;20002;-77
2024/04/24 04:28:40;;;;;;;3.08;1.85;;;7.40;99.90;;;;;;5453971;26;20435;-76
2024/04/24 04:31:05;;;;;;;4.95;1.60;;;7.50;99.90;;;;;;5455492;26;20006;-76
2024/04/24 04:33:31;;;;;;;3.85;2.10;;;7.10;99.90;;;;;;5453033;26;20014;-76
2024/04/24 04:35:57;;;;;;;3.10;1.90;;;7.00;99.90;;;;;;5456352;26;20124;-76
2024/04/24 04:38:22;;;;;;;3.17;1.40;;;7.10;99.90;;;;;;5453390;26;20764;-76
2024/04/24 04:40:48;;;;;;;4.03;1.67;;;7.30;99.90;;;;;;5450424;26;20010;-76
2024/04/24 04:43:13;;;;;;;2.75;1.60;;;7.10;99.90;;;;;;5451193;26;20732;-77
2024/04/24 04:45:39;;;;;;;2.67;1.55;;;7.00;99.90;;;;;;5450533;26;20013;-76
2024/04/24 04:48:06;;;;;;;3.28;1.65;;;7.00;99.90;;;;;;5455403;26;20041;-76
2024/04/24 04:50:32;;;;;;;2.25;1.38;;;7.00;99.90;;;;;;5454358;26;20600;-76
2024/04/24 04:52:57;;;;;;;3.15;1.48;;;7.20;99.90;;;;;;5450696;26;20010;-76
2024/04/24 04:55:24;;;;;;;6.00;1.73;;;7.30;99.90;;;;;;5449313;26;20384;-77
2024/04/24 04:57:50;;;;;;;3.20;1.60;;;7.30;99.90;;;;;;5453034;26;19998;-77
2024/04/24 05:00:17;;;;;;;3.17;1.55;;;7.40;99.90;;;;;;5450205;26;20002;-77
2024/04/24 05:02:44;;;;;;;3.83;1.98;;;7.70;99.20;;;;;;5451730;26;20082;-77
2024/04/24 05:05:09;;;;;;;2.72;1.77;;;7.80;98.00;;;;;;5451505;26;20017;-77
2024/04/24 05:07:35;;;;;;;4.20;1.90;;;7.90;98.20;;;;;;5449813;26;19999;-77
2024/04/24 05:10:01;;;;;;;3.28;1.42;;;7.90;98.40;;;;;;5453742;26;20016;-77
2024/04/24 05:12:27;;;;;;;2.45;1.40;;;7.80;99.90;;;;;;5455437;26;20487;-77
2024/04/24 05:14:52;;;;;;;2.80;1.80;;;7.50;99.90;;;;;;5452660;26;19995;-77
2024/04/24 05:17:18;;;;;;;2.33;1.15;;;7.40;99.90;;;;;;5451805;26;20038;-73
2024/04/24 05:19:43;;;;;;;4.03;1.40;;;7.40;99.90;;;;;;5459073;26;20424;-74
2024/04/24 05:22:09;;;;;;;2.75;1.27;;;7.50;99.90;;;;;;5452891;26;20014;-74
2024/04/24 05:24:36;;;;;;;2.20;1.30;;;7.70;99.70;;;;;;5453375;26;20013;-74
2024/04/24 05:29:46;;;;;;;2.10;0.98;;;7.80;99.90;;;;;;5452750;26;20013;-74
2024/04/24 05:32:12;;;;;;;2.65;1.17;;;7.70;99.90;;;;;;5453429;26;20014;-75
2024/04/24 05:34:38;;;;;;;2.00;1.13;;;7.80;98.90;;;;;;5454242;26;20045;-74
2024/04/24 05:37:04;;;;;;;2.35;1.20;;;8.00;97.80;;;;;;5453420;26;20021;-75
2024/04/24 05:39:29;;;;;;;1.88;0.80;;;8.10;97.40;;;;;;5451301;26;19994;-76
2024/04/24 05:41:55;;;;;;;4.68;1.33;;;8.10;98.90;;;;;;5454859;26;20006;-74
2024/04/24 05:44:23;;;;;;;1.67;0.98;;;8.10;99.90;;;;;;5455822;26;20021;-73
2024/04/24 05:46:49;;;;;;;1.48;0.60;;;8.00;99.90;;;;;;5454557;26;20529;-72
2024/04/24 05:49:14;;;;;;;3.53;1.17;;;8.20;98.50;;;;;;5452876;26;20012;-74
2024/04/24 05:51:41;;;;;;;1.98;0.90;;;8.20;95.90;;;;;;5452665;26;20014;-72
2024/04/24 05:54:07;;;;;;;3.40;1.60;;;8.40;96.80;;;;;;5453743;26;19999;-72
2024/04/24 05:56:33;;;;;;;5.65;2.10;;;8.40;98.50;;;;;;5455051;26;20006;-71
2024/04/24 05:58:58;;;;;;;1.83;1.20;;;8.40;98.80;;;;;;5453452;26;20010;-72
2024/04/24 06:01:24;;;;;;;2.53;1.30;;;8.40;98.20;;;;;;5453632;26;20021;-71
2024/04/24 06:03:50;;;;;;;2.78;1.00;;;8.40;98.60;;;;;;5453573;26;20070;-72
2024/04/24 06:06:15;;;;;;;2.80;1.33;;;8.50;99.90;;;;;;5454451;26;20002;-72
2024/04/24 06:08:41;;;;;;;2.35;1.02;;;8.60;98.90;;;;;;5453126;26;20006;-72
2024/04/24 06:11:08;;;;;;;1.83;0.90;;;8.70;99.80;;;;;;5452723;26;20017;-73
2024/04/24 06:13:34;;;;;;;2.28;1.23;;;8.80;99.90;;;;;;5455077;26;20013;-73
2024/04/24 06:16:00;;;;;;;2.03;0.98;;;8.80;99.90;;;;;;5453180;26;20065;-72
2024/04/24 06:18:25;;;;;;;3.80;1.20;;;8.90;99.90;;;;;;5453285;26;20468;-72
2024/04/24 06:20:51;;;;;;;1.05;0.70;;;9.00;99.90;;;;;;5449788;26;20006;-72
2024/04/24 06:23:16;;;;;;;1.90;0.73;;;9.20;99.00;;;;;;5451203;26;20697;-73
2024/04/24 06:25:44;;;;;;;1.95;0.80;;;9.50;99.60;;;;;;5454383;26;20021;-72
2024/04/24 06:28:10;;;;;;;1.38;0.80;;;9.80;98.90;;;;;;5453296;26;20002;-72
2024/04/24 06:30:36;;;;;;;1.20;0.60;;;9.90;97.00;;;;;;5450762;26;20022;-72
2024/04/24 06:33:02;;;;;;;1.45;0.70;;;10.30;97.00;;;;;;5453184;26;20109;-72
2024/04/24 06:35:28;;;;;;;2.30;1.08;;;10.40;95.90;;;;;;5452128;26;20086;-72
2024/04/24 06:37:54;;;;;;;1.83;0.77;;;10.40;92.80;;;;;;5452195;26;20459;-73
2024/04/24 06:40:19;;;;;;;1.60;0.60;;;10.60;93.20;;;;;;5452024;26;20475;-73
2024/04/24 06:42:45;;;;;;;1.67;0.90;;;10.70;93.00;;;;;;5450598;26;20030;-73
2024/04/24 06:45:11;;;;;;;2.47;0.65;;;10.90;93.00;;;;;;5451756;26;20388;-73
2024/04/24 06:47:36;;;;;;;1.17;0.70;;;11.00;91.80;;;;;;5452827;26;21918;-72
2024/04/24 06:50:02;;;;;;;1.15;0.77;;;11.00;91.60;;;;;;5451266;26;19998;-74
2024/04/24 06:52:30;;;;;;;0.88;0.50;;;10.50;91.70;;;;;;5451266;26;20024;-73
2024/04/24 06:54:55;;;;;;;1.73;0.88;;;10.30;91.90;;;;;;5453627;26;20507;-72
2024/04/24 06:57:21;;;;;;;1.70;0.93;;;10.50;90.70;;;;;;5451637;26;20044;-73
2024/04/24 06:59:46;;;;;;;1.52;0.60;;;11.40;91.10;;;;;;5452427;26;20002;-73
2024/04/24 07:02:12;;;;;;;2.28;0.63;;;12.10;90.90;;;;;;5451011;26;20006;-73
2024/04/24 07:04:37;;;;;;;1.13;0.60;;;11.50;88.50;;;;;;5452420;26;20295;-73
2024/04/24 07:07:03;;;;;;;1.60;0.60;;;11.10;89.70;;;;;;5450818;26;20006;-74
2024/04/24 07:09:29;;;;;;;3.13;0.50;;;11.20;91.20;;;;;;5449808;26;20017;-73
2024/04/24 07:11:54;;;;;;;1.30;0.63;;;11.90;89.00;;;;;;5453088;26;20116;-73
2024/04/24 07:14:20;;;;;;;0.70;0.43;;;12.80;89.80;;;;;;5453437;26;20074;-73
2024/04/24 07:16:45;;;;;;;0.65;0.30;;;15.00;87.30;;;;;;5451006;26;20042;-73
2024/04/24 07:19:11;;;;;;;1.88;0.70;;;15.10;84.60;;;;;;5451111;26;20003;-73
2024/04/24 07:21:37;;;;;;;2.65;1.35;;;13.80;83.60;;;;;;5450640;26;20025;-74
2024/04/24 07:24:02;;;;;;;1.05;0.70;;;14.10;82.80;;;;;;5449651;26;20028;-74
2024/04/24 07:26:28;;;;;;;3.60;0.68;;;15.60;78.50;;;;;;5450405;26;20010;-74
2024/04/24 07:28:54;;;;;;;0.60;0.50;;;17.50;77.80;;;;;;5453497;26;20075;-74
2024/04/24 07:31:19;;;;;;;2.17;0.47;;;19.10;74.80;;;;;;5450116;26;20014;-74
2024/04/24 07:33:45;;;;;;;0.35;0.20;;;19.70;72.80;;;;;;5450492;26;19998;-74
2024/04/24 07:36:11;;;;;;;1.08;0.50;;;17.80;68.40;;;;;;5452510;26;20909;-73
2024/04/24 07:38:36;;;;;;;1.20;0.60;;;17.80;68.70;;;;;;5450463;26;20373;-73
2024/04/24 07:41:05;;;;;;;1.10;0.57;;;15.00;70.10;;;;;;5451301;26;20070;-73
2024/04/24 07:43:34;;;;;;;1.30;0.70;;;12.90;72.40;;;;;;5452258;26;20042;-73
2024/04/24 07:46:00;;;;;;;3.08;0.50;;;12.40;74.90;;;;;;5451051;26;20002;-74
2024/04/24 07:48:26;;;;;;;1.80;0.80;;;12.60;75.90;;;;;;5451507;26;20001;-73
2024/04/24 07:50:51;;;;;;;1.02;0.60;;;12.40;75.70;;;;;;5451292;26;20009;-74
2024/04/24 07:53:17;;;;;;;3.92;1.20;;;12.20;77.50;;;;;;5450279;26;20002;-74
2024/04/24 07:55:43;;;;;;;1.45;0.98;;;12.00;78.40;;;;;;5452379;26;19998;-73
2024/04/24 07:58:09;;;;;;;2.85;1.20;;;12.00;76.80;;;;;;5451188;26;20017;-73
2024/04/24 08:00:34;;;;;;;1.42;0.77;;;12.10;78.00;;;;;;5450278;26;20066;-73
2024/04/24 08:03:01;;;;;;;1.40;0.60;;;11.90;76.80;;;;;;5452049;26;20019;-73
2024/04/24 08:05:27;;;;;;;3.13;0.80;;;11.70;75.70;;;;;;5453028;26;20340;-73
2024/04/24 08:07:53;;;;;;;1.33;0.82;;;11.70;79.90;;;;;;5454234;26;20017;-73
2024/04/24 08:10:18;;;;;;;1.23;0.55;;;11.60;77.40;;;;;;5455550;26;20448;-73
2024/04/24 08:12:44;;;;;;;1.08;0.57;;;11.60;77.20;;;;;;5453036;26;20396;-73
2024/04/24 08:15:10;;;;;;;0.82;0.40;;;11.50;76.70;;;;;;5453324;26;20006;-73
2024/04/24 08:17:35;;;;;;;1.60;0.70;;;11.50;79.10;;;;;;5454266;26;19990;-73
2024/04/24 08:20:02;;;;;;;3.50;1.25;;;11.60;78.60;;;;;;5452646;26;20055;-73
2024/04/24 08:22:28;;;;;;;3.42;0.90;;;11.60;76.40;;;;;;5453688;26;20007;-73
2024/04/24 08:24:53;;;;;;;3.28;0.70;;;11.80;76.30;;;;;;5454694;26;20099;-73
2024/04/24 08:27:19;;;;;;;1.80;0.68;;;12.00;76.40;;;;;;5453251;26;20014;-73
2024/04/24 08:29:44;;;;;;;1.92;0.73;;;12.70;78.60;;;;;;5451861;26;20005;-73
2024/04/24 08:32:10;;;;;;;2.72;1.00;;;13.90;75.00;;;;;;5454240;26;20006;-73
2024/04/24 08:34:36;;;;;;;4.00;1.17;;;14.70;74.40;;;;;;5454085;26;20006;-73
2024/04/24 08:37:02;;;;;;;3.13;1.50;;;14.20;75.80;;;;;;5453185;26;19990;-73
2024/04/24 08:39:27;;;;;;;2.97;0.82;;;14.20;73.20;;;;;;5454206;26;20337;-73
2024/04/24 08:41:53;;;;;;;3.22;0.60;;;13.20;74.10;;;;;;5453384;26;20006;-73
2024/04/24 08:44:20;;;;;;;1.67;0.65;;;14.00;74.20;;;;;;5457468;26;20168;-73
2024/04/24 08:46:46;;;;;;;0.98;0.50;;;15.20;73.30;;;;;;5458375;26;20525;-72
2024/04/24 08:49:11;;;;;;;0.55;0.43;;;15.90;74.70;;;;;;5455500;26;20010;-73
2024/04/24 08:51:41;;;;;;;1.25;0.63;;;14.80;73.10;;;;;;5455915;26;20006;-73
2024/04/24 08:54:14;;;;;;;2.03;0.70;;;14.40;71.20;;;;;;5458446;26;20078;-73
2024/04/24 08:56:52;;;;;;;1.85;0.73;;;14.00;73.30;;;;;;5457935;26;20041;-73
2024/04/24 08:59:22;;;;;;;2.00;0.85;;;13.50;74.80;;;;;;5456295;26;20059;-73
2024/04/24 09:02:13;;;;;;;1.08;0.68;;;13.30;76.10;;;;;;5456566;26;20021;-73
2024/04/24 09:04:43;;;;;;;2.40;1.00;;;13.00;73.30;;;;;;5456933;26;20336;-72
2024/04/24 09:07:11;;;;;;;1.70;0.70;;;12.90;76.20;;;;;;5457281;26;19998;-73
2024/04/24 09:09:37;;;;;;;1.48;0.80;;;12.90;74.60;;;;;;5458500;26;20021;-73
2024/04/24 09:12:05;;;;;;;1.52;0.55;;;12.80;72.80;;;;;;5456064;26;20014;-73
2024/04/24 09:14:32;;;;;;;1.58;0.60;;;12.70;73.60;;;;;;5455813;26;19998;-73
2024/04/24 09:16:58;;;;;;;2.30;0.55;;;12.80;73.00;;;;;;5457674;26;20010;-73
2024/04/24 09:19:24;;;;;;;1.55;0.70;;;12.90;74.40;;;;;;5456825;26;20010;-73
2024/04/24 09:21:49;;;;;;;0.93;0.40;;;13.00;76.00;;;;;;5455766;26;20499;-73
2024/04/24 09:24:16;;;;;;;1.40;0.65;;;12.90;72.20;;;;;;5458554;26;20436;-73
2024/04/24 09:26:42;;;;;;;2.88;1.25;;;12.90;74.00;;;;;;5456062;26;20087;-73
2024/04/24 09:29:11;;;;;;;0.98;0.60;;;13.00;74.20;;;;;;5455347;26;20675;-73
2024/04/24 09:31:40;;;;;;;1.35;0.55;;;12.90;73.90;;;;;;5458193;26;20859;-73
2024/04/24 09:34:09;;;;;;;1.38;0.52;;;12.90;74.70;;;;;;5456089;26;20005;-73
2024/04/24 09:36:40;;;;;;;0.85;0.43;;;12.90;71.60;;;;;;5456411;26;20013;-73
2024/04/24 09:39:16;;;;;;;0.60;0.40;;;13.00;73.10;;;;;;5456374;26;20001;-73
2024/04/24 09:41:43;;;;;;;0.70;0.50;;;13.40;78.90;;;;;;5458026;26;20010;-72
2024/04/24 09:44:12;;;;;;;1.38;0.60;;;13.60;73.60;;;;;;5456990;26;20133;-73
2024/04/24 09:46:51;;;;;;;1.30;0.60;;;13.60;74.50;;;;;;5456234;26;20527;-73
2024/04/24 09:49:18;;;;;;;0.85;0.60;;;13.80;74.60;;;;;;5455204;26;19998;-73
2024/04/24 09:51:44;;;;;;;1.05;0.70;;;13.90;76.10;;;;;;5457756;26;20006;-73
2024/04/24 09:54:10;;;;;;;0.63;0.50;;;13.90;74.10;;;;;;5456330;26;20847;-73
2024/04/24 09:56:45;;;;;;;0.93;0.47;;;13.80;73.80;;;;;;5455520;26;20013;-73
2024/04/24 09:59:12;;;;;;;2.00;0.70;;;14.10;74.70;;;;;;5456526;26;20013;-73
2024/04/24 10:01:43;;;;;;;1.13;0.60;;;14.10;73.20;;;;;;5458206;26;20417;-73
2024/04/24 10:04:12;;;;;;;1.02;0.40;;;13.90;73.90;;;;;;5455434;26;20017;-73
2024/04/24 10:06:43;;;;;;;1.95;0.88;;;13.80;73.20;;;;;;5453265;26;20082;-72
2024/04/24 10:09:09;;;;;;;0.95;0.57;;;13.90;72.30;;;;;;5453407;26;20002;-74
2024/04/24 10:11:47;;;;;;;1.42;0.90;;;13.80;71.80;;;;;;5453438;26;20008;-73
2024/04/24 10:14:18;;;;;;;0.90;0.52;;;14.10;74.50;;;;;;5450589;26;20005;-72
2024/04/24 10:16:46;;;;;;;1.55;0.50;;;14.30;75.10;;;;;;5451278;26;20010;-74
2024/04/24 10:19:13;;;;;;;1.83;0.95;;;14.20;73.60;;;;;;5450503;26;20024;-73
2024/04/24 10:21:39;;;;;;;2.83;1.05;;;14.20;76.10;;;;;;5454388;26;20017;-73
2024/04/24 10:24:06;;;;;;;1.70;0.88;;;13.80;81.40;;;;;;5451859;26;20122;-73
2024/04/24 10:26:32;;;;;;;2.65;1.05;;;13.90;84.10;;;;;;5451066;26;21762;-73
2024/04/24 10:29:00;;;;;;;4.25;1.00;;;13.70;82.90;;;;;;5452861;26;20006;-73
2024/04/24 10:31:26;;;;;;;2.88;1.23;;;13.80;84.20;;;;;;5453349;26;20006;-73
2024/04/24 10:33:53;;;;;;;1.98;1.20;;;13.70;86.20;;;;;;5451789;26;20024;-73
2024/04/24 10:36:18;;;;;;;2.35;1.27;;;13.70;85.90;;;;;;5454764;26;20044;-73
2024/04/24 10:38:47;;;;;;;1.98;0.90;;;13.70;86.40;;;;;;5455572;26;20010;-73
2024/04/24 10:41:12;;;;;;;1.90;0.88;;;13.90;86.80;;;;;;5455220;26;20722;-73
2024/04/24 10:43:41;;;;;;;2.28;1.00;;;13.70;84.30;;;;;;5459102;26;20002;-73
2024/04/24 10:46:07;;;;;;;1.50;0.65;;;13.80;87.20;;;;;;5456047;26;20328;-73
2024/04/24 10:48:58;;;;;;;2.03;1.00;;;13.90;86.00;;;;;;5456184;26;20002;-73
2024/04/24 10:51:34;;;;;;;2.15;0.90;;;14.00;86.10;;;;;;5455424;26;19998;-74
2024/04/24 10:54:06;;;;;;;2.83;1.33;;;14.10;87.60;;;;;;5455159;26;19998;-73
2024/04/24 10:56:31;;;;;;;3.00;1.30;;;14.10;88.70;;;;;;5458272;26;20051;-73
2024/04/24 10:58:57;;;;;;;4.00;1.40;;;14.10;89.10;;;;;;5453688;26;20009;-73
2024/04/24 11:01:30;;;;;;;3.38;1.60;;;13.90;89.10;;;;;;5453739;26;20002;-73
2024/04/24 11:03:55;;;;;;;3.20;1.30;;;13.80;89.60;;;;;;5455384;26;20087;-73
2024/04/24 11:06:21;;;;;;;7.50;1.60;;;13.80;89.80;;;;;;5456477;26;20144;-73
2024/04/24 11:08:50;;;;;;;3.45;1.75;;;13.60;89.70;;;;;;5453673;26;20006;-73
2024/04/24 11:11:25;;;;;;;3.13;1.30;;;13.70;90.40;;;;;;5450087;26;20008;-73
2024/04/24 11:14:16;;;;;;;;;;;13.70;90.90;;;;;;5454195;26;20009;-73
2024/04/24 11:16:56;;;;;;;5.47;1.70;;;13.70;91.10;;;;;;5444696;26;20678;-73
2024/04/24 11:19:22;;;;;;;4.47;1.70;;;13.60;91.20;;;;;;5453227;26;19994;-73
2024/04/24 11:21:50;;;;;;;2.63;1.40;;;13.50;91.70;;;;;;5451099;26;20095;-73
2024/04/24 11:24:17;;;;;;;4.30;1.92;;;13.60;91.60;;;;;;5453286;26;20006;-73
2024/04/24 11:26:43;;;;;;;3.97;1.48;;;13.40;91.60;;;;;;5455362;26;20356;-73
2024/04/24 11:29:09;;;;;;;3.30;1.48;;;13.50;91.50;;;;;;5456848;26;20009;-73
2024/04/24 11:31:42;;;;;;;3.05;1.30;;;13.60;92.00;;;;;;5454247;26;22500;-72
2024/04/24 11:34:10;;;;;;;4.97;1.75;;;13.40;91.10;;;;;;5454748;26;20610;-73
2024/04/24 11:36:38;;;;;;;2.92;1.38;;;13.70;91.60;;;;;;5455726;26;20013;-73
2024/04/24 11:39:04;;;;;;;2.03;1.08;;;13.50;91.50;;;;;;5454127;26;20006;-73
2024/04/24 11:41:30;;;;;;;2.30;1.27;;;13.80;91.60;;;;;;5454037;26;20079;-73
2024/04/24 11:43:56;;;;;;;3.67;1.52;;;13.80;91.50;;;;;;5451184;26;20006;-73
2024/04/24 11:46:22;;;;;;;4.82;2.00;;;13.80;91.40;;;;;;5453024;26;20034;-73
2024/04/24 11:48:53;;;;;;;9.70;2.55;;;14.00;92.00;;;;;;5454034;26;20034;-73
2024/04/24 11:51:19;;;;;;;2.53;1.30;;;14.10;91.50;;;;;;5455653;26;20440;-73
2024/04/24 11:53:49;;;;;;;1.70;0.85;;;14.20;91.80;;;;;;5455146;26;20002;-73
2024/04/24 11:56:20;;;;;;;2.60;1.25;;;14.30;91.50;;;;;;5451671;26;20003;-73
2024/04/24 11:58:46;;;;;;;2.42;1.13;;;14.40;91.40;;;;;;5450293;26;20051;-73
2024/04/24 12:01:12;;;;;;;3.15;1.98;;;14.20;91.50;;;;;;5453020;26;20014;-73
2024/04/24 12:03:37;;;;;;;3.42;1.50;;;14.10;91.40;;;;;;5451421;26;20573;-73
2024/04/24 12:06:04;;;;;;;5.15;1.55;;;14.20;91.50;;;;;;5450501;26;20038;-73
2024/04/24 12:08:30;;;;;;;3.88;1.20;;;14.10;91.50;;;;;;5449513;26;20400;-74
2024/04/24 12:11:02;;;;;;;2.08;1.17;;;14.60;94.30;;;;;;5447200;26;20021;-73
2024/04/24 12:13:32;;;;;;;3.35;1.45;;;14.80;91.50;;;;;;5450010;26;20033;-72
2024/04/24 12:16:02;;;;;;;3.08;1.17;;;14.70;91.20;;;;;;5452674;26;20017;-73
2024/04/24 12:18:29;;;;;;;4.07;1.50;;;14.60;91.60;;;;;;5448170;26;20063;-75
2024/04/24 12:20:55;;;;;;;2.97;1.45;;;14.80;91.50;;;;;;5450257;26;20017;-74
2024/04/24 12:23:26;;;;;;;4.75;1.80;;;14.80;91.80;;;;;;5451298;26;19999;-74
2024/04/24 12:25:55;;;;;;;10.38;5.63;;;14.80;91.60;;;;;;5452495;26;20005;-74
2024/04/24 12:28:21;;;;;;;5.13;2.53;;;14.70;91.50;;;;;;5450267;26;20002;-74
2024/04/24 12:30:51;;;;;;;6.47;2.45;;;14.70;91.70;;;;;;5449460;26;20010;-74
2024/04/24 12:33:16;;;;;;;4.32;2.10;;;14.80;91.50;;;;;;5451353;26;20014;-74
2024/04/24 12:35:42;;;;;;;2.28;1.35;;;14.90;91.60;;;;;;5450389;26;20002;-74
2024/04/24 12:38:09;;;;;;;5.18;1.83;;;15.10;91.40;;;;;;5451848;26;21890;-74
2024/04/24 12:40:36;;;;;;;2.65;1.50;;;14.80;91.30;;;;;;5452459;26;20409;-74
2024/04/24 12:43:03;;;;;;;3.28;1.33;;;14.80;91.40;;;;;;5450059;26;20017;-75
2024/04/24 12:45:28;;;;;;;3.85;1.73;;;14.70;92.00;;;;;;5449764;26;20048;-74
2024/04/24 12:47:54;;;;;;;2.88;1.33;;;14.70;91.90;;;;;;5452812;26;20009;-74
2024/04/24 12:50:20;;;;;;;3.03;1.30;;;15.20;91.90;;;;;;5449324;26;20018;-76
2024/04/24 12:52:47;;;;;;;3.20;1.60;;;15.30;91.80;;;;;;5450430;26;20041;-75
2024/04/24 12:55:12;;;;;;;4.22;1.42;;;15.30;91.60;;;;;;5450720;26;20025;-76